Time;durP1;ratioP1;P1;durP2;ratioP2;P2;SDS_P1;SDS_P2;PMS_P1;PMS_P2;Temp;Humidity;BMP_temperature;BMP_pressure;BME280_temperature;BME280_humidity;BME280_pressure;Samples;Min_cycle;Max_cycle;Signal;HPM_P1;HPM_P2
2021/08/05 00:01:17;;;;;;;4.28;1.92;;;;;;;;;;5014498;28;20026;-76
2021/08/05 00:03:43;;;;;;;4.50;2.33;;;;;;;;;;5014505;28;20049;-76
2021/08/05 00:06:10;;;;;;;3.80;2.10;;;;;;;;;;5014581;28;20030;-76
2021/08/05 00:08:36;;;;;;;4.78;2.80;;;;;;;;;;5013924;28;20116;-75
2021/08/05 00:11:02;;;;;;;3.60;2.58;;;;;;;;;;5013474;28;20617;-76
2021/08/05 00:13:28;;;;;;;3.58;2.15;;;;;;;;;;5013972;28;20049;-76
2021/08/05 00:15:54;;;;;;;2.92;2.08;;;;;;;;;;5013775;28;20450;-76
2021/08/05 00:18:21;;;;;;;3.53;2.40;;;;;;;;;;5013893;28;20040;-76
2021/08/05 00:20:47;;;;;;;4.28;2.67;;;;;;;;;;5013263;28;20545;-76
2021/08/05 00:23:13;;;;;;;4.20;2.58;;;;;;;;;;5013912;28;20030;-75
2021/08/05 00:25:39;;;;;;;3.33;2.60;;;;;;;;;;5013643;28;20080;-75
2021/08/05 00:28:05;;;;;;;4.88;2.55;;;;;;;;;;5013241;28;20033;-76
2021/08/05 00:30:31;;;;;;;4.90;2.97;;;;;;;;;;5012953;28;20034;-76
2021/08/05 00:32:57;;;;;;;4.45;2.30;;;;;;;;;;5013827;28;20030;-75
2021/08/05 00:35:23;;;;;;;4.60;2.35;;;;;;;;;;5013655;28;20026;-76
2021/08/05 00:37:49;;;;;;;7.28;2.75;;;;;;;;;;5013285;28;20084;-76
2021/08/05 00:40:15;;;;;;;2.70;1.95;;;;;;;;;;5012820;28;20399;-76
2021/08/05 00:42:41;;;;;;;5.82;2.25;;;;;;;;;;5012707;28;20033;-77
2021/08/05 00:45:07;;;;;;;5.53;2.20;;;;;;;;;;5013101;28;20080;-77
2021/08/05 00:47:33;;;;;;;3.38;2.15;;;;;;;;;;5013219;28;20034;-76
2021/08/05 00:49:59;;;;;;;4.05;2.38;;;;;;;;;;5012686;28;20030;-76
2021/08/05 00:52:26;;;;;;;4.03;2.20;;;;;;;;;;5011993;28;20040;-76
2021/08/05 00:54:52;;;;;;;4.18;2.10;;;;;;;;;;5013035;28;20036;-76
2021/08/05 00:57:18;;;;;;;4.40;2.33;;;;;;;;;;5012900;28;20025;-76
2021/08/05 00:59:44;;;;;;;4.45;2.42;;;;;;;;;;5010958;28;20483;-76
2021/08/05 01:02:32;;;;;;;3.35;2.13;;;;;;;;;;5011830;28;20030;-76
2021/08/05 01:04:58;;;;;;;4.45;2.15;;;;;;;;;;5013149;28;20145;-76
2021/08/05 01:07:27;;;;;;;4.10;2.35;;;;;;;;;;5012728;28;20042;-76
2021/08/05 01:09:58;;;;;;;6.35;2.45;;;;;;;;;;4994592;28;20080;-76
2021/08/05 01:12:36;;;;;;;3.22;2.00;;;;;;;;;;5012934;28;20029;-76
2021/08/05 01:15:04;;;;;;;4.88;2.40;;;;;;;;;;5012547;28;20032;-76
2021/08/05 01:17:36;;;;;;;4.60;2.80;;;;;;;;;;5012806;28;20022;-76
2021/08/05 01:20:02;;;;;;;6.85;2.13;;;;;;;;;;5012223;28;20023;-77
2021/08/05 01:22:40;;;;;;;4.45;1.90;;;;;;;;;;5012806;28;20033;-76
2021/08/05 01:25:08;;;;;;;3.45;2.17;;;;;;;;;;5012610;28;20061;-76
2021/08/05 01:27:35;;;;;;;3.65;2.25;;;;;;;;;;5012654;28;20060;-76
2021/08/05 01:30:01;;;;;;;4.85;2.50;;;;;;;;;;5011761;28;20070;-76
2021/08/05 01:32:27;;;;;;;3.78;2.15;;;;;;;;;;5013080;28;20394;-76
2021/08/05 01:34:54;;;;;;;3.38;2.13;;;;;;;;;;5013495;28;20033;-76
2021/08/05 01:37:21;;;;;;;3.58;2.20;;;;;;;;;;5012923;28;20057;-76
2021/08/05 01:39:47;;;;;;;3.63;2.25;;;;;;;;;;5011933;28;20152;-76
2021/08/05 01:42:16;;;;;;;4.55;2.80;;;;;;;;;;5012502;28;20030;-76
2021/08/05 01:44:43;;;;;;;3.15;2.28;;;;;;;;;;5012041;28;20113;-76
2021/08/05 01:47:11;;;;;;;3.50;2.20;;;;;;;;;;5012468;28;20033;-77
2021/08/05 01:49:37;;;;;;;3.50;2.30;;;;;;;;;;5011553;28;20037;-76
2021/08/05 01:52:03;;;;;;;4.05;2.50;;;;;;;;;;5011918;28;20033;-77
2021/08/05 01:54:29;;;;;;;4.03;2.60;;;;;;;;;;5011806;28;20041;-76
2021/08/05 01:56:55;;;;;;;4.40;2.20;;;;;;;;;;5012218;28;20030;-76
2021/08/05 01:59:21;;;;;;;5.15;2.78;;;;;;;;;;5011185;28;20048;-76
2021/08/05 02:01:47;;;;;;;4.85;2.60;;;;;;;;;;5012098;28;20030;-76
2021/08/05 02:04:13;;;;;;;5.10;2.65;;;;;;;;;;5012023;28;20050;-76
2021/08/05 02:06:44;;;;;;;4.53;2.60;;;;;;;;;;5011888;28;20537;-76
2021/08/05 02:09:13;;;;;;;5.97;2.67;;;;;;;;;;5011332;28;20051;-76
2021/08/05 02:11:42;;;;;;;5.05;2.75;;;;;;;;;;5011555;28;20103;-76
2021/08/05 02:14:09;;;;;;;4.45;2.95;;;;;;;;;;5011924;28;20025;-76
2021/08/05 02:16:38;;;;;;;5.18;2.97;;;;;;;;;;5011562;28;20060;-76
2021/08/05 02:19:04;;;;;;;5.65;2.88;;;;;;;;;;5011395;28;20068;-76
2021/08/05 02:21:31;;;;;;;5.53;3.38;;;;;;;;;;5011773;28;20723;-76
2021/08/05 02:23:58;;;;;;;5.15;2.75;;;;;;;;;;5012003;28;20545;-76
2021/08/05 02:26:25;;;;;;;6.20;3.10;;;;;;;;;;5011766;28;20061;-76
2021/08/05 02:28:51;;;;;;;3.63;2.78;;;;;;;;;;5011077;28;20495;-77
2021/08/05 02:31:18;;;;;;;5.45;2.97;;;;;;;;;;5010284;28;20462;-76
2021/08/05 02:33:44;;;;;;;6.13;3.28;;;;;;;;;;5011942;28;20026;-76
2021/08/05 02:36:10;;;;;;;4.50;3.00;;;;;;;;;;5010561;28;20037;-76
2021/08/05 02:38:36;;;;;;;6.15;2.92;;;;;;;;;;5011114;28;20068;-76
2021/08/05 02:41:03;;;;;;;4.85;2.83;;;;;;;;;;5011484;28;20057;-76
2021/08/05 02:43:32;;;;;;;3.88;2.88;;;;;;;;;;5010214;28;20049;-76
2021/08/05 02:45:59;;;;;;;4.20;2.47;;;;;;;;;;5010307;28;20064;-76
2021/08/05 02:48:26;;;;;;;5.95;3.22;;;;;;;;;;5011339;28;20113;-76
2021/08/05 02:50:54;;;;;;;4.70;3.10;;;;;;;;;;5011069;28;20491;-76
2021/08/05 02:53:20;;;;;;;6.82;3.10;;;;;;;;;;5010373;28;20034;-76
2021/08/05 02:55:46;;;;;;;6.47;2.85;;;;;;;;;;5011752;28;20053;-76
2021/08/05 02:58:13;;;;;;;4.72;2.70;;;;;;;;;;5011210;28;22069;-76
2021/08/05 03:00:39;;;;;;;4.63;2.90;;;;;;;;;;5010771;28;20022;-76
2021/08/05 03:03:05;;;;;;;4.95;3.13;;;;;;;;;;5011579;28;20026;-76
2021/08/05 03:05:31;;;;;;;5.10;2.95;;;;;;;;;;5012958;28;20038;-76
2021/08/05 03:07:57;;;;;;;6.15;3.30;;;;;;;;;;5015062;28;20112;-76
2021/08/05 03:10:23;;;;;;;3.65;2.80;;;;;;;;;;5014456;28;20570;-76
2021/08/05 03:12:49;;;;;;;5.10;2.80;;;;;;;;;;5015191;28;20029;-76
2021/08/05 03:15:15;;;;;;;5.60;2.80;;;;;;;;;;5014679;28;20022;-76
2021/08/05 03:17:41;;;;;;;7.93;3.15;;;;;;;;;;5014385;28;20075;-76
2021/08/05 03:20:08;;;;;;;4.75;2.90;;;;;;;;;;5013863;28;20612;-77
2021/08/05 03:22:35;;;;;;;4.68;2.90;;;;;;;;;;5015108;28;20060;-76
2021/08/05 03:25:01;;;;;;;5.88;3.08;;;;;;;;;;5015110;28;20026;-77
2021/08/05 03:27:27;;;;;;;6.07;3.35;;;;;;;;;;5014781;28;20026;-76
2021/08/05 03:29:53;;;;;;;4.78;2.88;;;;;;;;;;5044913;22;20409;-84
2021/08/05 03:32:19;;;;;;;5.85;3.22;;;;;;;;;;5019394;28;20125;-85
2021/08/05 03:34:45;;;;;;;5.30;3.15;;;;;;;;;;5001263;28;20030;-85
2021/08/05 03:37:11;;;;;;;5.95;3.30;;;;;;;;;;5020135;28;20034;-85
2021/08/05 03:39:37;;;;;;;5.80;3.42;;;;;;;;;;5028124;28;20037;-84
2021/08/05 03:42:03;;;;;;;7.18;3.83;;;;;;;;;;5021431;28;20171;-84
2021/08/05 03:44:29;;;;;;;5.20;3.40;;;;;;;;;;5054624;28;20120;-82
2021/08/05 03:46:55;;;;;;;6.38;3.78;;;;;;;;;;5058283;28;20052;-83
2021/08/05 03:49:21;;;;;;;5.60;3.00;;;;;;;;;;5055876;28;20033;-85
2021/08/05 03:51:47;;;;;;;6.25;3.60;;;;;;;;;;5057592;28;20025;-83
2021/08/05 03:54:13;;;;;;;7.22;3.45;;;;;;;;;;5056978;28;20029;-83
2021/08/05 03:56:39;;;;;;;5.50;3.55;;;;;;;;;;5057441;28;20078;-84
2021/08/05 03:59:05;;;;;;;7.50;3.70;;;;;;;;;;5056077;28;20033;-84
2021/08/05 04:01:31;;;;;;;6.45;3.50;;;;;;;;;;5057013;28;20037;-84
2021/08/05 04:03:57;;;;;;;6.13;3.78;;;;;;;;;;5057025;28;20033;-84
2021/08/05 04:06:23;;;;;;;4.38;3.47;;;;;;;;;;5038940;28;20033;-84
2021/08/05 04:08:49;;;;;;;5.43;3.55;;;;;;;;;;5055631;28;20037;-84
2021/08/05 04:11:15;;;;;;;6.32;3.88;;;;;;;;;;5054529;28;20037;-83
2021/08/05 04:13:41;;;;;;;8.75;3.95;;;;;;;;;;5056545;28;20393;-84
2021/08/05 04:16:08;;;;;;;6.22;3.72;;;;;;;;;;5056492;28;20040;-84
2021/08/05 04:18:34;;;;;;;6.15;3.53;;;;;;;;;;5056473;28;20053;-84
2021/08/05 04:21:00;;;;;;;5.28;4.07;;;;;;;;;;5056766;28;20540;-84
2021/08/05 04:23:26;;;;;;;6.32;3.50;;;;;;;;;;5050228;28;20037;-84
2021/08/05 04:25:52;;;;;;;5.78;3.70;;;;;;;;;;5056893;28;20093;-84
2021/08/05 04:28:23;;;;;;;7.50;3.72;;;;;;;;;;5056611;28;20035;-84
2021/08/05 04:30:49;;;;;;;8.02;4.05;;;;;;;;;;5058855;28;20028;-84
2021/08/05 04:33:15;;;;;;;5.32;3.72;;;;;;;;;;5061688;28;20033;-84
2021/08/05 04:35:41;;;;;;;5.75;3.88;;;;;;;;;;5055406;28;20170;-84
2021/08/05 04:38:09;;;;;;;6.50;3.70;;;;;;;;;;5056212;28;20025;-83
2021/08/05 04:40:35;;;;;;;5.13;3.60;;;;;;;;;;5054526;28;20029;-83
2021/08/05 04:43:01;;;;;;;7.45;3.80;;;;;;;;;;5055939;28;20040;-84
2021/08/05 04:45:27;;;;;;;6.63;3.95;;;;;;;;;;5054910;28;20120;-84
2021/08/05 04:47:58;;;;;;;5.90;4.20;;;;;;;;;;5054109;28;20047;-84
2021/08/05 04:50:28;;;;;;;5.93;3.78;;;;;;;;;;5037489;28;20028;-84
2021/08/05 04:52:55;;;;;;;7.05;3.95;;;;;;;;;;5055625;28;20037;-84
2021/08/05 04:55:21;;;;;;;6.22;4.30;;;;;;;;;;5056208;28;20431;-84
2021/08/05 04:57:47;;;;;;;6.50;4.50;;;;;;;;;;5055038;28;20021;-84
2021/08/05 05:00:13;;;;;;;7.30;4.43;;;;;;;;;;5055121;28;20526;-84
2021/08/05 05:02:39;;;;;;;7.15;3.80;;;;;;;;;;5055439;28;20032;-84
2021/08/05 05:05:05;;;;;;;5.78;3.92;;;;;;;;;;5053679;28;20497;-84
2021/08/05 05:07:31;;;;;;;7.47;4.40;;;;;;;;;;5055632;28;20483;-84
2021/08/05 05:09:57;;;;;;;8.70;4.60;;;;;;;;;;5036781;28;20021;-85
2021/08/05 05:12:23;;;;;;;8.13;4.13;;;;;;;;;;5055055;28;20051;-84
2021/08/05 05:14:49;;;;;;;5.93;3.83;;;;;;;;;;5054634;28;20017;-84
2021/08/05 05:17:15;;;;;;;5.72;3.55;;;;;;;;;;5037476;28;20052;-84
2021/08/05 05:19:41;;;;;;;7.03;3.10;;;;;;;;;;5054618;28;20035;-84
2021/08/05 05:22:07;;;;;;;7.22;2.72;;;;;;;;;;5054047;28;20028;-84
2021/08/05 05:24:33;;;;;;;5.25;3.17;;;;;;;;;;5048715;28;20056;-84
2021/08/05 05:26:59;;;;;;;5.30;3.15;;;;;;;;;;5036530;28;20037;-84
2021/08/05 05:29:25;;;;;;;4.65;2.90;;;;;;;;;;5052831;28;20033;-84
2021/08/05 05:31:51;;;;;;;5.93;3.00;;;;;;;;;;5054031;28;20471;-84
2021/08/05 05:34:17;;;;;;;3.83;2.63;;;;;;;;;;5054525;28;20497;-84
2021/08/05 05:36:43;;;;;;;6.88;3.70;;;;;;;;;;5054197;28;20040;-85
2021/08/05 05:39:09;;;;;;;8.07;4.60;;;;;;;;;;5053143;28;20032;-84
2021/08/05 05:41:35;;;;;;;6.70;2.60;;;;;;;;;;5036016;28;20033;-84
2021/08/05 05:44:01;;;;;;;4.53;2.65;;;;;;;;;;5036165;28;20512;-83
2021/08/05 05:46:27;;;;;;;6.35;2.70;;;;;;;;;;5035988;28;20029;-84
2021/08/05 05:48:53;;;;;;;4.90;2.60;;;;;;;;;;5028078;28;20400;-84
2021/08/05 05:51:19;;;;;;;5.85;2.72;;;;;;;;;;5052393;28;20065;-84
2021/08/05 05:53:45;;;;;;;6.57;3.08;;;;;;;;;;5053753;28;20029;-84
2021/08/05 05:56:12;;;;;;;4.47;2.70;;;;;;;;;;5050318;28;20126;-84
2021/08/05 05:58:38;;;;;;;4.80;2.80;;;;;;;;;;5033021;28;20024;-84
2021/08/05 06:01:04;;;;;;;6.05;3.20;;;;;;;;;;5043344;28;20028;-84
2021/08/05 06:03:30;;;;;;;4.03;2.55;;;;;;;;;;5064639;28;20033;-83
2021/08/05 06:05:56;;;;;;;3.22;2.47;;;;;;;;;;5054213;28;20056;-84
2021/08/05 06:08:22;;;;;;;7.05;2.78;;;;;;;;;;5054466;28;20036;-84
2021/08/05 06:10:48;;;;;;;4.22;2.33;;;;;;;;;;5035935;28;20474;-83
2021/08/05 06:13:14;;;;;;;6.05;2.40;;;;;;;;;;5036610;28;20056;-84
2021/08/05 06:15:40;;;;;;;3.88;2.33;;;;;;;;;;5054288;28;20125;-84
2021/08/05 06:18:06;;;;;;;6.07;2.50;;;;;;;;;;5037116;28;20021;-84
2021/08/05 06:20:32;;;;;;;5.63;2.63;;;;;;;;;;5036188;28;20032;-84
2021/08/05 06:22:59;;;;;;;5.40;2.10;;;;;;;;;;5054176;28;20512;-84
2021/08/05 06:25:25;;;;;;;3.60;2.28;;;;;;;;;;5066350;28;20504;-84
2021/08/05 06:27:51;;;;;;;4.35;2.53;;;;;;;;;;5037496;28;20482;-83
2021/08/05 06:30:17;;;;;;;5.28;2.40;;;;;;;;;;5054556;28;20045;-83
2021/08/05 06:32:43;;;;;;;5.57;1.88;;;;;;;;;;5056854;28;20056;-84
2021/08/05 06:35:09;;;;;;;4.90;1.80;;;;;;;;;;5039608;28;20035;-84
2021/08/05 06:37:36;;;;;;;3.30;2.05;;;;;;;;;;5056371;28;20580;-84
2021/08/05 06:40:04;;;;;;;4.15;2.08;;;;;;;;;;5057666;28;20025;-84
2021/08/05 06:42:31;;;;;;;4.97;1.67;;;;;;;;;;5056969;28;20052;-84
2021/08/05 06:44:57;;;;;;;5.63;1.95;;;;;;;;;;5057923;28;20029;-84
2021/08/05 06:47:23;;;;;;;3.10;1.70;;;;;;;;;;5057785;28;20153;-84
2021/08/05 06:49:49;;;;;;;3.28;2.13;;;;;;;;;;5057087;28;20029;-83
2021/08/05 06:52:15;;;;;;;3.20;1.90;;;;;;;;;;5038918;28;20025;-85
2021/08/05 06:54:41;;;;;;;3.20;1.80;;;;;;;;;;5062431;28;20059;-85
2021/08/05 06:57:08;;;;;;;5.50;2.20;;;;;;;;;;5063123;28;20020;-84
2021/08/05 06:59:33;;;;;;;2.70;1.73;;;;;;;;;;5059238;28;20025;-84
2021/08/05 07:02:00;;;;;;;4.13;1.90;;;;;;;;;;5057743;28;20055;-85
2021/08/05 07:04:26;;;;;;;3.55;1.80;;;;;;;;;;5056673;28;20037;-84
2021/08/05 07:06:53;;;;;;;2.47;1.60;;;;;;;;;;5039594;28;20029;-84
2021/08/05 07:09:18;;;;;;;3.40;1.40;;;;;;;;;;5041675;28;20089;-84
2021/08/05 07:11:44;;;;;;;3.10;1.85;;;;;;;;;;5058438;28;20029;-84
2021/08/05 07:14:11;;;;;;;2.63;1.60;;;;;;;;;;5046196;28;20026;-84
2021/08/05 07:16:37;;;;;;;3.97;1.70;;;;;;;;;;5022146;28;20033;-83
2021/08/05 07:19:03;;;;;;;3.70;1.67;;;;;;;;;;5059670;28;20040;-83
2021/08/05 07:21:29;;;;;;;4.25;1.60;;;;;;;;;;5064853;28;20025;-81
2021/08/05 07:23:56;;;;;;;3.45;1.92;;;;;;;;;;5067377;28;20051;-80
2021/08/05 07:26:22;;;;;;;3.13;1.95;;;;;;;;;;5069227;28;20021;-82
2021/08/05 07:28:49;;;;;;;3.25;1.60;;;;;;;;;;5061287;28;20444;-80
2021/08/05 07:31:15;;;;;;;3.90;1.70;;;;;;;;;;5056288;28;20092;-81
2021/08/05 07:33:42;;;;;;;2.92;1.60;;;;;;;;;;5050852;28;20078;-83
2021/08/05 07:36:08;;;;;;;3.30;1.60;;;;;;;;;;5048065;28;20041;-81
2021/08/05 07:38:34;;;;;;;2.80;1.67;;;;;;;;;;5062896;28;20054;-82
2021/08/05 07:41:00;;;;;;;4.45;1.95;;;;;;;;;;5058999;28;20464;-82
2021/08/05 07:43:27;;;;;;;2.22;1.55;;;;;;;;;;5053347;28;20036;-81
2021/08/05 07:45:53;;;;;;;3.92;1.40;;;;;;;;;;5062149;28;20039;-83
2021/08/05 07:48:19;;;;;;;3.30;2.05;;;;;;;;;;5046810;28;20032;-82
2021/08/05 07:50:45;;;;;;;4.32;1.95;;;;;;;;;;5059358;28;20037;-81
2021/08/05 07:53:11;;;;;;;3.95;1.60;;;;;;;;;;5047733;28;20036;-81
2021/08/05 07:55:37;;;;;;;3.72;1.85;;;;;;;;;;5063601;28;20102;-84
2021/08/05 07:58:03;;;;;;;3.42;1.65;;;;;;;;;;5064033;28;20033;-81
2021/08/05 08:00:29;;;;;;;3.17;1.80;;;;;;;;;;5061116;28;20075;-83
2021/08/05 08:02:55;;;;;;;6.20;1.80;;;;;;;;;;5058584;28;20041;-84
2021/08/05 08:05:21;;;;;;;4.72;1.85;;;16.50;99.90;;;;;;5057322;28;20040;-81
2021/08/05 08:07:47;;;;;;;2.22;1.70;;;;;;;;;;5038008;28;20680;-83
2021/08/05 08:10:14;;;;;;;2.60;1.45;;;;;;;;;;5056595;28;20045;-82
2021/08/05 08:12:40;;;;;;;2.03;1.60;;;;;;;;;;5057068;28;20117;-82
2021/08/05 08:15:06;;;;;;;3.50;1.60;;;;;;;;;;5057286;28;20639;-83
2021/08/05 08:17:32;;;;;;;4.10;1.83;;;;;;;;;;5056854;28;20051;-84
2021/08/05 08:19:58;;;;;;;1.80;1.30;;;;;;;;;;5055642;28;20033;-82
2021/08/05 08:22:25;;;;;;;4.20;1.60;;;;;;;;;;5056991;28;20059;-83
2021/08/05 08:24:51;;;;;;;3.17;1.60;;;;;;;;;;5055616;28;20013;-81
2021/08/05 08:27:17;;;;;;;3.67;1.52;;;;;;;;;;5058165;28;20029;-83
2021/08/05 08:29:43;;;;;;;2.67;1.55;;;;;;;;;;5056084;28;20527;-83
2021/08/05 08:32:09;;;;;;;2.47;1.50;;;;;;;;;;5056974;28;20025;-81
2021/08/05 08:34:35;;;;;;;2.25;1.40;;;;;;;;;;5055669;28;20090;-82
2021/08/05 08:37:01;;;;;;;2.97;1.50;;;;;;;;;;5056557;28;20041;-83
2021/08/05 08:39:27;;;;;;;2.70;1.58;;;;;;;;;;5055860;28;20048;-83
2021/08/05 08:41:53;;;;;;;2.55;1.58;;;;;;;;;;5056559;28;20048;-83
2021/08/05 08:44:19;;;;;;;3.08;1.58;;;;;;;;;;5058849;28;20029;-82
2021/08/05 08:46:47;;;;;;;2.90;1.52;;;;;;;;;;5040739;28;20060;-83
2021/08/05 08:49:16;;;;;;;3.40;1.65;;;;;;;;;;5055010;28;20056;-83
2021/08/05 08:51:45;;;;;;;2.70;1.65;;;;;;;;;;5057929;28;20055;-82
2021/08/05 08:54:11;;;;;;;3.60;1.77;;;;;;;;;;5056375;28;20053;-81
2021/08/05 08:56:39;;;;;;;2.22;1.63;;;;;;;;;;5056526;28;20032;-83
2021/08/05 08:59:05;;;;;;;1.85;1.40;;;;;;;;;;5056395;28;20504;-82
2021/08/05 09:01:32;;;;;;;1.95;1.45;;;;;;;;;;5056506;28;20036;-81
2021/08/05 09:03:58;;;;;;;2.25;1.60;;;;;;;;;;5056770;28;20090;-82
2021/08/05 09:06:24;;;;;;;4.25;1.48;;;;;;;;;;5040128;28;20101;-83
2021/08/05 09:08:51;;;;;;;4.35;2.13;;;;;;;;;;5057039;28;20045;-82
2021/08/05 09:11:17;;;;;;;2.78;1.75;;;;;;;;;;5039811;28;20767;-82
2021/08/05 09:13:43;;;;;;;5.07;1.83;;;;;;;;;;5057259;28;20437;-82
2021/08/05 09:16:26;;;;;;;5.00;1.50;;;;;;;;;;5055603;28;20033;-81
2021/08/05 09:18:53;;;;;;;1.80;1.10;;;;;;;;;;5052432;28;20052;-83
2021/08/05 09:21:21;;;;;;;2.38;1.40;;;;;;;;;;5059090;28;20036;-81
2021/08/05 09:23:47;;;;;;;3.38;1.67;;;;;;;;;;5044741;28;20013;-81
2021/08/05 09:26:23;;;;;;;2.65;1.33;;;;;;;;;;5057807;28;20025;-81
2021/08/05 09:29:08;;;;;;;2.42;1.42;;;;;;;;;;5037698;28;20025;-81
2021/08/05 09:31:34;;;;;;;2.83;1.50;;;;;;;;;;5055613;28;20032;-82
2021/08/05 09:34:15;;;;;;;2.92;1.23;;;21.70;99.90;;;;;;5033766;28;20237;-81
2021/08/05 09:36:43;;;;;;;3.50;1.58;;;24.00;99.90;;;;;;5032858;28;20019;-84
2021/08/05 09:39:23;;;;;;;3.03;1.40;;;24.10;99.90;;;;;;5050415;28;20108;-82
2021/08/05 09:42:02;;;;;;;2.85;1.30;;;24.00;99.90;;;;;;5053683;28;20040;-84
2021/08/05 09:44:41;;;;;;;2.80;1.40;;;23.90;99.90;;;;;;5062175;28;20033;-82
2021/08/05 09:47:12;;;;;;;2.13;1.40;;;24.20;99.90;;;;;;5061278;28;20013;-82
2021/08/05 09:49:47;;;;;;;4.22;1.60;;;24.60;99.90;;;;;;5052614;28;21020;-78
2021/08/05 09:52:14;;;;;;;2.22;1.45;;;24.90;99.90;;;;;;5058545;28;20029;-80
2021/08/05 09:54:48;;;;;;;3.60;1.55;;;25.20;99.90;;;;;;5055532;28;20029;-79
2021/08/05 09:57:23;;;;;;;4.72;1.60;;;25.90;99.50;;;;;;5042163;28;20032;-78
2021/08/05 10:00:28;;;;;;;2.80;1.90;;;26.10;99.60;;;;;;5047942;28;20025;-79
2021/08/05 10:02:54;;;;;;;1.90;1.40;;;26.40;97.20;;;;;;5013717;28;20056;-78
2021/08/05 10:05:22;;;;;;;3.00;1.40;;;26.80;96.40;;;;;;5057308;28;20503;-80
2021/08/05 10:07:52;;;;;;;4.43;1.40;;;27.40;94.80;;;;;;5040468;28;20024;-78
2021/08/05 10:10:25;;;;;;;5.03;1.63;;;27.00;94.70;;;;;;5056807;28;20644;-78
2021/08/05 10:12:50;;;;;;;;;;;26.80;93.40;;;;;;5041837;28;20037;-77
2021/08/05 10:15:16;;;;;;;4.35;1.40;;;26.20;94.70;;;;;;5059373;28;19955;-79
2021/08/05 10:17:43;;;;;;;3.42;1.40;;;25.60;95.40;;;;;;5058462;28;20033;-79
2021/08/05 10:20:11;;;;;;;1.55;1.13;;;25.20;95.90;;;;;;5057193;28;20468;-79
2021/08/05 10:22:38;;;;;;;2.05;1.20;;;25.10;95.70;;;;;;5059313;28;20025;-78
2021/08/05 10:25:07;;;;;;;2.08;1.40;;;25.00;96.60;;;;;;5061992;28;20048;-78
2021/08/05 10:27:33;;;;;;;2.17;1.27;;;25.40;95.90;;;;;;5059296;28;20079;-78
2021/08/05 10:30:00;;;;;;;2.28;1.23;;;26.00;95.30;;;;;;5057519;28;20048;-77
2021/08/05 10:32:26;;;;;;;3.40;1.73;;;25.80;95.30;;;;;;5058573;28;20053;-79
2021/08/05 10:34:52;;;;;;;2.92;1.17;;;26.00;95.30;;;;;;5060853;28;20032;-77
2021/08/05 10:37:18;;;;;;;2.15;1.52;;;26.40;94.20;;;;;;5061061;28;20094;-78
2021/08/05 10:39:46;;;;;;;3.00;1.20;;;26.60;93.50;;;;;;5057203;28;20037;-79
2021/08/05 10:42:15;;;;;;;2.92;1.60;;;26.60;95.60;;;;;;5039439;28;20171;-79
2021/08/05 10:44:41;;;;;;;2.97;1.60;;;27.50;92.90;;;;;;5057006;28;20497;-78
2021/08/05 10:47:11;;;;;;;3.20;1.40;;;27.20;91.90;;;;;;5053300;28;20398;-78
2021/08/05 10:49:36;;;;;;;3.53;1.50;;;27.00;93.10;;;;;;5053874;28;20108;-78
2021/08/05 10:52:03;;;;;;;3.38;1.55;;;27.40;91.90;;;;;;5038121;28;20521;-77
2021/08/05 10:54:48;;;;;;;3.35;1.95;;;26.70;92.90;;;;;;5054206;28;20029;-77
2021/08/05 10:57:17;;;;;;;1.88;1.38;;;26.40;94.00;;;;;;5053646;28;20029;-77
2021/08/05 11:00:16;;;;;;;3.50;1.60;;;26.10;94.30;;;;;;5071270;28;20005;-76
2021/08/05 11:02:51;;;;;;;1.95;1.40;;;25.80;94.80;;;;;;5076165;28;20041;-75
2021/08/05 11:05:25;;;;;;;3.50;1.50;;;25.50;94.50;;;;;;5073812;28;20029;-77
2021/08/05 11:08:15;;;;;;;2.72;1.48;;;25.10;95.60;;;;;;5038644;28;20017;-76
2021/08/05 11:10:41;;;;;;;2.03;1.25;;;25.50;95.50;;;;;;5053599;28;20435;-78
2021/08/05 11:13:07;;;;;;;2.13;1.33;;;26.20;94.90;;;;;;5053736;28;20037;-78
2021/08/05 11:15:35;;;;;;;2.00;1.10;;;26.60;94.30;;;;;;5053900;28;20395;-77
2021/08/05 11:18:07;;;;;;;1.10;0.80;;;26.70;93.40;;;;;;5056616;28;20025;-78
2021/08/05 11:20:37;;;;;;;1.48;1.00;;;26.90;92.60;;;;;;5052781;28;20690;-77
2021/08/05 11:23:04;;;;;;;2.25;1.10;;;27.20;91.40;;;;;;5053508;28;20048;-77
2021/08/05 11:26:03;;;;;;;0.93;0.77;;;27.50;92.20;;;;;;5051610;28;20075;-77
2021/08/05 11:28:42;;;;;;;0.90;0.82;;;27.70;90.80;;;;;;5022726;28;20103;-77
2021/08/05 11:31:10;;;;;;;1.75;0.88;;;28.30;89.80;;;;;;5051794;28;20115;-78
2021/08/05 11:33:36;;;;;;;1.13;0.90;;;;;;;;;;5060447;28;20143;-78
2021/08/05 11:36:25;;;;;;;1.30;1.00;;;28.80;90.00;;;;;;5042268;28;20470;-77
2021/08/05 11:38:57;;;;;;;2.70;1.13;;;28.00;88.40;;;;;;5042468;28;20040;-78
2021/08/05 11:41:56;;;;;;;1.80;0.98;;;27.90;89.50;;;;;;5061047;28;20095;-78
2021/08/05 11:44:32;;;;;;;3.03;1.10;;;28.20;86.40;;;;;;5043592;28;20040;-77
2021/08/05 11:47:07;;;;;;;0.93;0.70;;;28.10;85.70;;;;;;5053957;28;20138;-77
2021/08/05 11:49:43;;;;;;;1.20;0.77;;;28.00;86.70;;;;;;5049188;28;20571;-77
2021/08/05 11:52:23;;;;;;;1.08;0.77;;;28.50;83.40;;;;;;5051181;28;20075;-77
2021/08/05 11:55:14;;;;;;;3.40;0.80;;;27.80;85.60;;;;;;5050628;28;20025;-77
2021/08/05 11:58:01;;;;;;;1.08;0.70;;;27.60;87.60;;;;;;5048938;28;20162;-77
2021/08/05 12:00:31;;;;;;;1.40;0.80;;;27.50;87.70;;;;;;5045599;28;20138;-76
2021/08/05 12:03:16;;;;;;;0.93;0.77;;;26.90;87.30;;;;;;5047115;28;20029;-78
2021/08/05 12:05:44;;;;;;;2.33;1.10;;;26.60;89.90;;;;;;5048429;28;20033;-78
2021/08/05 12:08:12;;;;;;;1.00;0.90;;;26.90;90.10;;;;;;5049767;28;20074;-77
2021/08/05 12:10:42;;;;;;;1.80;0.98;;;26.70;90.00;;;;;;5049699;28;20040;-77
2021/08/05 12:13:20;;;;;;;3.20;1.10;;;26.70;89.80;;;;;;5055242;28;20036;-76
2021/08/05 12:15:50;;;;;;;1.58;0.85;;;26.50;89.30;;;;;;5054269;28;20045;-76
2021/08/05 12:18:21;;;;;;;1.55;0.90;;;26.80;90.80;;;;;;5053521;28;20044;-77
2021/08/05 12:20:51;;;;;;;2.55;1.15;;;27.60;88.30;;;;;;5052183;28;20404;-76
2021/08/05 12:23:37;;;;;;;1.73;0.70;;;28.70;89.30;;;;;;5053295;28;20025;-77
2021/08/05 12:28:41;;;;;;;4.63;0.90;;;30.30;83.20;;;;;;5049135;28;20064;-76
2021/08/05 12:31:12;;;;;;;2.08;1.05;;;29.30;81.60;;;;;;5028156;28;20480;-76
2021/08/05 12:33:41;;;;;;;1.50;0.93;;;27.90;85.60;;;;;;5035067;28;20032;-76
2021/08/05 12:36:14;;;;;;;2.35;1.20;;;27.50;87.20;;;;;;5043409;28;20037;-76
2021/08/05 12:38:59;;;;;;;2.05;0.93;;;27.30;87.80;;;;;;5051500;28;20381;-76
2021/08/05 12:41:34;;;;;;;3.20;1.05;;;27.50;88.90;;;;;;5043771;28;20538;-76
2021/08/05 12:44:09;;;;;;;1.10;0.90;;;27.60;87.70;;;;;;5052844;28;20039;-76
2021/08/05 12:46:36;;;;;;;2.08;1.00;;;27.40;86.70;;;;;;5051027;28;20044;-77
2021/08/05 12:49:02;;;;;;;1.13;0.70;;;28.50;87.80;;;;;;5052253;28;20025;-76
2021/08/05 12:51:30;;;;;;;4.20;1.00;;;27.70;88.20;;;;;;5048896;28;20151;-76
2021/08/05 12:54:12;;;;;;;1.38;0.90;;;27.60;88.20;;;;;;5046305;28;20056;-76
2021/08/05 12:56:43;;;;;;;2.93;1.27;;;27.20;88.70;;;;;;5048140;28;20028;-76
2021/08/05 12:59:09;;;;;;;2.50;1.00;;;27.60;90.30;;;;;;5048285;28;20302;-76
2021/08/05 13:01:35;;;;;;;1.13;0.98;;;28.60;87.10;;;;;;5038902;28;20079;-76
2021/08/05 13:04:02;;;;;;;1.52;0.90;;;28.90;85.40;;;;;;5049109;28;20025;-77
2021/08/05 13:06:52;;;;;;;0.80;0.65;;;29.10;83.80;;;;;;5052549;28;20025;-77
2021/08/05 13:09:18;;;;;;;1.10;0.90;;;29.20;83.80;;;;;;5050277;28;20017;-77
2021/08/05 13:11:44;;;;;;;1.75;0.65;;;29.80;82.70;;;;;;5051680;28;20040;-77
2021/08/05 13:14:25;;;;;;;0.50;0.50;;;29.40;80.90;;;;;;5052032;28;20025;-77
2021/08/05 13:17:02;;;;;;;1.65;0.80;;;28.60;79.70;;;;;;5034072;28;20116;-77
2021/08/05 13:19:27;;;;;;;3.53;0.90;;;28.50;84.60;;;;;;5051681;28;20021;-77
2021/08/05 13:21:55;;;;;;;0.98;0.70;;;29.00;83.00;;;;;;5051897;28;20025;-77
2021/08/05 13:24:31;;;;;;;1.15;0.90;;;29.50;83.10;;;;;;5051899;28;20120;-77
2021/08/05 13:27:02;;;;;;;0.93;0.57;;;30.10;79.20;;;;;;5052044;28;20032;-76
2021/08/05 13:29:48;;;;;;;1.88;0.50;;;29.80;76.70;;;;;;5051339;28;20497;-77
2021/08/05 13:32:16;;;;;;;2.20;0.80;;;28.70;78.40;;;;;;5051294;28;20116;-77
2021/08/05 13:35:02;;;;;;;1.15;0.70;;;27.80;79.50;;;;;;5033830;28;20022;-77
2021/08/05 13:37:31;;;;;;;1.25;0.77;;;26.90;82.80;;;;;;5051773;28;20035;-77
2021/08/05 13:40:21;;;;;;;1.13;0.90;;;27.20;83.20;;;;;;5051061;28;20033;-77
2021/08/05 13:42:46;;;;;;;1.45;0.63;;;26.80;84.70;;;;;;5030479;28;20041;-76
2021/08/05 13:45:13;;;;;;;0.60;0.55;;;26.60;86.00;;;;;;5041220;28;20029;-77
2021/08/05 13:47:38;;;;;;;1.35;0.70;;;26.60;83.70;;;;;;5050374;28;20557;-77
2021/08/05 13:50:16;;;;;;;1.15;0.50;;;27.30;85.20;;;;;;5049598;28;20119;-77
2021/08/05 13:52:42;;;;;;;1.23;0.60;;;28.00;82.50;;;;;;5051187;28;20454;-77
2021/08/05 13:55:08;;;;;;;3.22;0.73;;;28.40;79.90;;;;;;5051593;28;20470;-77
2021/08/05 13:57:34;;;;;;;1.27;0.70;;;29.40;79.30;;;;;;5049488;28;20060;-77
2021/08/05 13:59:59;;;;;;;1.23;0.75;;;30.20;79.80;;;;;;5050477;28;20056;-76
2021/08/05 14:02:25;;;;;;;0.75;0.70;;;31.10;74.90;;;;;;5050765;28;20115;-76
2021/08/05 14:04:51;;;;;;;2.63;0.63;;;31.50;74.00;;;;;;5051216;28;20037;-77
2021/08/05 14:07:16;;;;;;;0.98;0.60;;;32.20;70.50;;;;;;5051358;28;20028;-76
2021/08/05 14:09:42;;;;;;;1.20;0.50;;;;;;;;;;5050447;28;20490;-76
2021/08/05 14:12:10;;;;;;;1.20;0.57;;;;;;;;;;5050674;28;20115;-77
2021/08/05 14:14:39;;;;;;;0.70;0.70;;;;;;;;;;5051329;28;20021;-76